createdAt,value
2019-01-20T00:00:07.425Z,38.90
2019-01-20T00:00:38.618Z,41.28
2019-01-20T00:01:09.773Z,39.92
2019-01-20T00:01:40.973Z,37.75
2019-01-20T00:02:12.155Z,38.13
2019-01-20T00:02:43.307Z,35.78
2019-01-20T00:03:14.479Z,36.98
2019-01-20T00:03:45.737Z,35.58
2019-01-20T00:04:16.850Z,37.53
2019-01-20T00:04:48.026Z,37.35
2019-01-20T00:05:19.173Z,36.70
2019-01-20T00:05:50.600Z,36.35
2019-01-20T00:06:21.778Z,34.92
2019-01-20T00:06:52.960Z,36.05
2019-01-20T00:07:24.138Z,37.00
2019-01-20T00:07:55.312Z,36.90
2019-01-20T00:08:26.491Z,36.77
2019-01-20T00:08:57.717Z,36.38
2019-01-20T00:09:28.894Z,35.30
2019-01-20T00:10:00.053Z,33.53
2019-01-20T00:10:31.231Z,35.05
2019-01-20T00:11:02.404Z,33.70
2019-01-20T00:11:33.564Z,33.30
2019-01-20T00:12:04.745Z,34.60
2019-01-20T00:12:36.235Z,32.05
2019-01-20T00:13:07.407Z,33.48
2019-01-20T00:13:38.583Z,33.98
2019-01-20T00:14:09.782Z,35.03
2019-01-20T00:14:40.967Z,33.83
2019-01-20T00:15:12.140Z,33.73
2019-01-20T00:15:43.295Z,34.67
2019-01-20T00:16:14.463Z,35.25
2019-01-20T00:16:45.629Z,34.13
2019-01-20T00:17:16.834Z,34.95
2019-01-20T00:17:47.989Z,33.25
2019-01-20T00:18:19.158Z,35.85
2019-01-20T00:18:50.320Z,35.68
2019-01-20T00:19:21.498Z,37.03
2019-01-20T00:19:52.684Z,38.78
2019-01-20T00:20:23.919Z,36.17
2019-01-20T00:20:55.104Z,36.50
2019-01-20T00:21:26.274Z,36.83
2019-01-20T00:21:57.433Z,36.95
2019-01-20T00:22:28.632Z,36.88
2019-01-20T00:22:59.797Z,36.40
2019-01-20T00:23:31.002Z,36.73
2019-01-20T00:24:02.171Z,36.35
2019-01-20T00:24:33.343Z,36.45
2019-01-20T00:25:04.532Z,38.30
2019-01-20T00:25:35.728Z,37.73
2019-01-20T00:26:06.898Z,36.85
2019-01-20T00:26:40.203Z,36.68
2019-01-20T00:27:11.387Z,37.08
2019-01-20T00:27:42.547Z,38.08
2019-01-20T00:28:13.712Z,36.63
2019-01-20T00:28:44.924Z,34.03
2019-01-20T00:29:16.088Z,36.93
2019-01-20T00:29:47.258Z,38.00
2019-01-20T00:30:18.458Z,35.95
2019-01-20T00:30:49.620Z,34.13
2019-01-20T00:31:20.794Z,36.53
2019-01-20T00:31:51.996Z,33.83
2019-01-20T00:32:23.189Z,35.50
2019-01-20T00:32:54.389Z,35.08
2019-01-20T00:33:25.553Z,36.58
2019-01-20T00:33:56.721Z,34.95
2019-01-20T00:34:27.893Z,35.13
2019-01-20T00:34:59.066Z,36.10
2019-01-20T00:35:30.232Z,32.58
2019-01-20T00:36:01.391Z,36.10
2019-01-20T00:36:32.567Z,35.38
2019-01-20T00:37:03.751Z,32.53
2019-01-20T00:37:34.941Z,35.00
2019-01-20T00:38:06.105Z,34.25
2019-01-20T00:38:37.335Z,33.60
2019-01-20T00:39:08.518Z,32.85
2019-01-20T00:39:39.700Z,32.30
2019-01-20T00:40:10.865Z,33.80
2019-01-20T00:40:42.044Z,32.67
2019-01-20T00:41:13.229Z,34.20
2019-01-20T00:41:44.390Z,36.60
2019-01-20T00:42:15.563Z,34.45
2019-01-20T00:42:46.768Z,36.08
2019-01-20T00:43:17.950Z,37.03
2019-01-20T00:43:49.123Z,34.90
2019-01-20T00:44:20.277Z,33.83
2019-01-20T00:44:51.434Z,33.90
2019-01-20T00:45:22.599Z,35.68
2019-01-20T00:45:53.759Z,35.83
2019-01-20T00:46:24.934Z,34.45
2019-01-20T00:46:56.097Z,34.20
2019-01-20T00:47:27.306Z,32.05
2019-01-20T00:47:58.485Z,33.58
2019-01-20T00:48:29.649Z,32.75
2019-01-20T00:49:00.823Z,32.88
2019-01-20T00:49:32.013Z,31.50
2019-01-20T00:50:03.159Z,32.60
2019-01-20T00:50:34.333Z,33.55
2019-01-20T00:51:06.556Z,32.55
2019-01-20T00:51:37.751Z,32.60
2019-01-20T00:52:08.930Z,30.80
2019-01-20T00:52:40.084Z,29.20
2019-01-20T00:53:11.265Z,34.27
2019-01-20T00:53:42.472Z,28.38
2019-01-20T00:54:13.706Z,30.85
2019-01-20T00:54:44.916Z,30.25
2019-01-20T00:55:18.316Z,32.53
2019-01-20T00:55:49.526Z,30.55
2019-01-20T00:56:20.689Z,31.97
2019-01-20T00:56:51.852Z,33.42
2019-01-20T00:57:23.014Z,33.00
2019-01-20T00:57:54.187Z,32.93
2019-01-20T00:58:25.369Z,31.97
2019-01-20T00:58:56.583Z,31.70
2019-01-20T00:59:27.749Z,33.10
2019-01-20T00:59:58.931Z,30.57
2019-01-20T01:00:32.210Z,36.13
2019-01-20T01:01:03.372Z,33.55
2019-01-20T01:01:34.590Z,34.10
2019-01-20T01:02:05.759Z,29.25
2019-01-20T01:02:36.935Z,35.43
2019-01-20T01:03:08.095Z,34.98
2019-01-20T01:03:39.269Z,34.38
2019-01-20T01:04:10.429Z,34.25
2019-01-20T01:04:43.861Z,35.68
2019-01-20T01:05:15.056Z,34.30
2019-01-20T01:05:46.249Z,37.38
2019-01-20T01:06:17.410Z,35.98
2019-01-20T01:06:48.580Z,36.80
2019-01-20T01:07:19.755Z,36.58
2019-01-20T01:07:50.944Z,35.20
2019-01-20T01:08:22.125Z,35.48
2019-01-20T01:08:53.314Z,34.27
2019-01-20T01:09:24.640Z,32.42
2019-01-20T01:09:55.786Z,34.60
2019-01-20T01:10:26.973Z,34.90
2019-01-20T01:10:58.133Z,34.18
2019-01-20T01:11:31.827Z,33.33
2019-01-20T01:12:02.202Z,34.80
2019-01-20T01:12:33.370Z,33.55
2019-01-20T01:13:04.537Z,30.25
2019-01-20T01:13:35.765Z,32.85
2019-01-20T01:14:06.937Z,33.20
2019-01-20T01:14:38.106Z,31.10
2019-01-20T01:15:09.290Z,27.27
2019-01-20T01:15:40.446Z,28.62
2019-01-20T01:16:11.618Z,25.75
2019-01-20T01:16:42.800Z,29.77
2019-01-20T01:17:14.004Z,29.12
2019-01-20T01:17:45.175Z,25.68
2019-01-20T01:18:16.401Z,25.52
2019-01-20T01:18:47.568Z,27.15
2019-01-20T01:19:18.742Z,28.73
2019-01-20T01:19:49.910Z,27.82
2019-01-20T01:20:21.069Z,27.90
2019-01-20T01:20:52.233Z,28.45
2019-01-20T01:21:23.408Z,30.00
2019-01-20T01:21:54.591Z,30.45
2019-01-20T01:22:25.788Z,30.15
2019-01-20T01:22:56.989Z,29.75
2019-01-20T01:23:28.203Z,30.68
2019-01-20T01:23:59.365Z,30.37
2019-01-20T01:24:30.534Z,30.20
2019-01-20T01:25:01.694Z,28.95
2019-01-20T01:25:32.856Z,32.03
2019-01-20T01:26:04.043Z,30.90
2019-01-20T01:26:36.843Z,32.48
2019-01-20T01:27:08.176Z,30.82
2019-01-20T01:27:39.370Z,31.52
2019-01-20T01:28:10.585Z,28.95
2019-01-20T01:28:42.146Z,26.10
2019-01-20T01:29:13.334Z,29.12
2019-01-20T01:29:44.498Z,29.23
2019-01-20T01:30:15.668Z,26.70
2019-01-20T01:30:46.842Z,27.40
2019-01-20T01:31:18.002Z,28.30
2019-01-20T01:31:49.164Z,30.32
2019-01-20T01:32:20.331Z,29.40
2019-01-20T01:32:51.494Z,29.72
2019-01-20T01:33:23.581Z,31.75
2019-01-20T01:33:54.756Z,29.50
2019-01-20T01:34:25.938Z,30.88
2019-01-20T01:34:57.093Z,30.62
2019-01-20T01:35:28.252Z,30.15
2019-01-20T01:35:59.501Z,28.20
2019-01-20T01:36:32.673Z,29.05
2019-01-20T01:37:03.838Z,30.55
2019-01-20T01:37:35.002Z,30.92
2019-01-20T01:38:06.186Z,30.43
2019-01-20T01:38:37.399Z,30.30
2019-01-20T01:39:08.579Z,27.87
2019-01-20T01:39:40.255Z,29.80
2019-01-20T01:40:11.412Z,29.02
2019-01-20T01:40:42.584Z,28.47
2019-01-20T01:41:13.789Z,29.35
2019-01-20T01:41:44.962Z,29.45
2019-01-20T01:42:16.120Z,29.70
2019-01-20T01:42:47.280Z,27.80
2019-01-20T01:43:18.456Z,27.02
2019-01-20T01:43:49.678Z,26.97
2019-01-20T01:44:21.154Z,25.35
2019-01-20T01:44:52.324Z,28.92
2019-01-20T01:45:23.510Z,29.42
2019-01-20T01:45:54.676Z,30.57
2019-01-20T01:46:25.854Z,31.45
2019-01-20T01:46:57.012Z,31.10
2019-01-20T01:47:28.192Z,30.17
2019-01-20T01:47:59.353Z,30.57
2019-01-20T01:48:30.527Z,32.38
2019-01-20T01:49:01.741Z,33.63
2019-01-20T01:49:33.047Z,30.85
2019-01-20T01:50:04.201Z,31.45
2019-01-20T01:50:35.885Z,31.80
2019-01-20T01:51:07.049Z,29.40
2019-01-20T01:51:38.224Z,29.25
2019-01-20T01:52:09.393Z,26.93
2019-01-20T01:52:40.560Z,30.62
2019-01-20T01:53:11.734Z,29.80
2019-01-20T01:53:45.264Z,29.50
2019-01-20T01:54:16.455Z,29.70
2019-01-20T01:54:47.619Z,28.85
2019-01-20T01:55:18.788Z,30.80
2019-01-20T01:55:49.945Z,30.00
2019-01-20T01:56:21.175Z,27.62
2019-01-20T01:56:52.346Z,26.17
2019-01-20T01:57:23.523Z,26.45
2019-01-20T01:57:54.691Z,24.40
2019-01-20T01:58:25.864Z,27.60
2019-01-20T01:58:57.032Z,27.05
2019-01-20T01:59:28.198Z,29.23
2019-01-20T01:59:59.377Z,29.75
2019-01-20T02:00:30.546Z,30.05
2019-01-20T02:01:01.717Z,29.72
2019-01-20T02:01:32.942Z,25.72
2019-01-20T02:02:04.109Z,29.30
2019-01-20T02:02:35.276Z,29.27
2019-01-20T02:03:06.455Z,28.57
2019-01-20T02:03:37.618Z,27.42
2019-01-20T02:04:08.798Z,28.02
2019-01-20T02:04:39.938Z,25.45
2019-01-20T02:05:11.097Z,27.07
2019-01-20T02:05:42.257Z,24.10
2019-01-20T02:06:14.537Z,25.40
2019-01-20T02:06:45.703Z,25.75
2019-01-20T02:07:16.861Z,25.90
2019-01-20T02:07:48.043Z,25.62
2019-01-20T02:08:19.210Z,24.15
2019-01-20T02:08:50.386Z,26.85
2019-01-20T02:09:21.546Z,27.80
2019-01-20T02:09:52.716Z,28.75
2019-01-20T02:10:23.930Z,28.17
2019-01-20T02:10:55.110Z,29.72
2019-01-20T02:11:26.276Z,30.68
2019-01-20T02:11:57.514Z,30.80
2019-01-20T02:12:28.675Z,32.00
2019-01-20T02:13:00.365Z,31.65
2019-01-20T02:13:31.541Z,31.35
2019-01-20T02:14:02.713Z,31.97
2019-01-20T02:14:33.896Z,32.13
2019-01-20T02:15:05.063Z,30.92
2019-01-20T02:15:36.238Z,31.82
2019-01-20T02:16:07.451Z,33.15
2019-01-20T02:16:38.618Z,31.82
2019-01-20T02:17:09.802Z,34.05
2019-01-20T02:17:40.961Z,32.40
2019-01-20T02:18:12.127Z,34.85
2019-01-20T02:18:43.309Z,33.85
2019-01-20T02:19:14.477Z,34.33
2019-01-20T02:19:45.646Z,33.23
2019-01-20T02:20:16.811Z,34.88
2019-01-20T02:20:47.982Z,34.35
2019-01-20T02:21:19.206Z,32.50
2019-01-20T02:21:50.376Z,33.18
2019-01-20T02:22:21.542Z,33.98
2019-01-20T02:22:52.717Z,33.80
2019-01-20T02:23:23.878Z,33.13
2019-01-20T02:23:57.378Z,32.48
2019-01-20T02:24:28.577Z,33.88
2019-01-20T02:24:59.737Z,33.73
2019-01-20T02:25:30.898Z,32.30
2019-01-20T02:26:02.066Z,33.35
2019-01-20T02:26:33.263Z,33.48
2019-01-20T02:27:04.434Z,29.77
2019-01-20T02:27:35.602Z,32.23
2019-01-20T02:28:06.773Z,32.33
2019-01-20T02:28:37.948Z,32.48
2019-01-20T02:29:09.136Z,34.33
2019-01-20T02:29:40.310Z,34.98
2019-01-20T02:30:11.482Z,34.40
2019-01-20T02:30:42.651Z,34.05
2019-01-20T02:31:13.796Z,34.03
2019-01-20T02:31:45.009Z,33.78
2019-01-20T02:32:16.183Z,32.73
2019-01-20T02:32:47.355Z,33.85
2019-01-20T02:33:18.560Z,33.60
2019-01-20T02:33:49.730Z,30.75
2019-01-20T02:34:20.916Z,32.33
2019-01-20T02:34:52.078Z,30.92
2019-01-20T02:35:23.250Z,30.85
2019-01-20T02:35:54.445Z,30.05
2019-01-20T02:36:25.629Z,31.70
2019-01-20T02:36:56.841Z,29.27
2019-01-20T02:37:30.133Z,28.62
2019-01-20T02:38:01.293Z,30.50
2019-01-20T02:38:32.457Z,28.60
2019-01-20T02:39:03.625Z,28.45
2019-01-20T02:39:34.793Z,26.80
2019-01-20T02:40:05.956Z,27.65
2019-01-20T02:40:37.135Z,26.80
2019-01-20T02:41:08.309Z,24.35
2019-01-20T02:41:39.464Z,26.62
2019-01-20T02:42:10.627Z,28.07
2019-01-20T02:42:41.883Z,29.32
2019-01-20T02:43:13.047Z,29.98
2019-01-20T02:43:44.281Z,31.42
2019-01-20T02:44:15.449Z,30.80
2019-01-20T02:44:46.629Z,30.27
2019-01-20T02:45:17.796Z,31.07
2019-01-20T02:45:48.947Z,32.33
2019-01-20T02:46:20.107Z,32.40
2019-01-20T02:46:51.262Z,31.50
2019-01-20T02:47:22.434Z,31.48
2019-01-20T02:47:53.608Z,33.00
2019-01-20T02:48:24.783Z,33.67
2019-01-20T02:48:55.939Z,32.45
2019-01-20T02:49:27.125Z,32.58
2019-01-20T02:49:58.291Z,29.72
2019-01-20T02:50:29.464Z,30.08
2019-01-20T02:51:00.637Z,31.50
2019-01-20T02:51:31.827Z,31.75
2019-01-20T02:52:03.005Z,27.82
2019-01-20T02:52:34.175Z,28.45
2019-01-20T02:53:05.349Z,29.82
2019-01-20T02:53:36.514Z,31.97
2019-01-20T02:54:07.725Z,30.00
2019-01-20T02:54:38.891Z,32.48
2019-01-20T02:55:10.083Z,28.65
2019-01-20T02:55:41.211Z,28.57
2019-01-20T02:56:12.374Z,29.50
2019-01-20T02:56:43.532Z,30.23
2019-01-20T02:57:14.693Z,28.05
2019-01-20T02:57:45.908Z,28.65
2019-01-20T02:58:17.064Z,32.20
2019-01-20T02:58:48.285Z,32.08
2019-01-20T02:59:19.462Z,31.45
2019-01-20T02:59:50.617Z,29.80
2019-01-20T03:00:21.774Z,26.97
2019-01-20T03:00:52.965Z,28.45
2019-01-20T03:01:24.159Z,26.35
2019-01-20T03:01:55.315Z,28.67
2019-01-20T03:02:26.485Z,27.75
2019-01-20T03:02:57.670Z,25.15
2019-01-20T03:03:28.849Z,26.87
2019-01-20T03:04:00.434Z,25.15
2019-01-20T03:04:31.597Z,26.35
2019-01-20T03:05:02.763Z,28.70
2019-01-20T03:05:33.939Z,30.48
2019-01-20T03:06:05.109Z,29.52
2019-01-20T03:06:36.276Z,28.85
2019-01-20T03:07:07.432Z,30.90
2019-01-20T03:07:38.603Z,30.45
2019-01-20T03:08:09.785Z,32.05
2019-01-20T03:08:40.953Z,31.15
2019-01-20T03:09:12.172Z,32.95
2019-01-20T03:09:43.332Z,28.98
2019-01-20T03:10:14.522Z,31.42
2019-01-20T03:10:45.686Z,29.82
2019-01-20T03:11:16.851Z,27.58
2019-01-20T03:11:48.008Z,25.02
2019-01-20T03:12:19.167Z,24.63
2019-01-20T03:12:50.348Z,22.27
2019-01-20T03:13:21.508Z,24.60
2019-01-20T03:13:52.704Z,27.95
2019-01-20T03:14:23.891Z,27.50
2019-01-20T03:14:55.039Z,31.60
2019-01-20T03:15:26.201Z,31.97
2019-01-20T03:15:57.366Z,31.35
2019-01-20T03:16:28.551Z,32.50
2019-01-20T03:16:59.738Z,32.00
2019-01-20T03:17:30.895Z,32.63
2019-01-20T03:18:02.055Z,32.83
2019-01-20T03:18:33.266Z,33.67
2019-01-20T03:19:04.432Z,33.85
2019-01-20T03:19:35.616Z,34.40
2019-01-20T03:20:06.774Z,32.65
2019-01-20T03:20:37.939Z,32.67
2019-01-20T03:21:09.172Z,34.67
2019-01-20T03:21:40.338Z,34.45
2019-01-20T03:22:11.496Z,37.05
2019-01-20T03:22:42.656Z,35.92
2019-01-20T03:23:13.838Z,36.73
2019-01-20T03:23:47.282Z,36.08
2019-01-20T03:24:18.438Z,35.88
2019-01-20T03:24:49.612Z,37.25
2019-01-20T03:25:20.764Z,36.65
2019-01-20T03:25:51.950Z,37.45
2019-01-20T03:26:23.205Z,38.25
2019-01-20T03:26:54.358Z,40.80
2019-01-20T03:27:25.534Z,39.83
2019-01-20T03:27:56.766Z,39.53
2019-01-20T03:28:27.956Z,39.45
2019-01-20T03:28:59.140Z,39.80
2019-01-20T03:29:30.312Z,37.38
2019-01-20T03:30:01.514Z,37.95
2019-01-20T03:30:32.662Z,38.17
2019-01-20T03:31:03.859Z,36.40
2019-01-20T03:31:35.070Z,33.18
2019-01-20T03:32:06.232Z,33.25
2019-01-20T03:32:37.396Z,36.00
2019-01-20T03:33:08.580Z,34.20
2019-01-20T03:33:39.729Z,35.05
2019-01-20T03:34:10.894Z,33.58
2019-01-20T03:34:42.056Z,33.73
2019-01-20T03:35:14.162Z,33.70
2019-01-20T03:35:46.094Z,32.03
2019-01-20T03:36:19.582Z,32.67
2019-01-20T03:36:50.747Z,31.65
2019-01-20T03:37:21.915Z,31.33
2019-01-20T03:37:53.083Z,32.45
2019-01-20T03:38:24.322Z,32.13
2019-01-20T03:38:55.490Z,31.27
2019-01-20T03:39:26.653Z,32.23
2019-01-20T03:39:57.823Z,32.13
2019-01-20T03:40:28.993Z,34.30
2019-01-20T03:41:00.171Z,33.85
2019-01-20T03:41:31.342Z,34.30
2019-01-20T03:42:02.552Z,33.13
2019-01-20T03:42:33.708Z,35.48
2019-01-20T03:43:04.887Z,36.00
2019-01-20T03:43:36.083Z,36.60
2019-01-20T03:44:07.263Z,35.00
2019-01-20T03:44:38.470Z,37.42
2019-01-20T03:45:09.660Z,35.08
2019-01-20T03:45:40.896Z,38.15
2019-01-20T03:46:12.045Z,30.95
2019-01-20T03:46:43.199Z,30.37
2019-01-20T03:47:14.367Z,28.83
2019-01-20T03:47:45.567Z,29.42
2019-01-20T03:48:16.704Z,31.80
2019-01-20T03:48:47.882Z,29.02
2019-01-20T03:49:19.055Z,32.30
2019-01-20T03:49:50.269Z,33.45
2019-01-20T03:50:21.461Z,34.05
2019-01-20T03:50:52.626Z,34.35
2019-01-20T03:51:23.799Z,35.17
2019-01-20T03:51:54.981Z,35.60
2019-01-20T03:52:26.146Z,36.65
2019-01-20T03:52:57.695Z,35.35
2019-01-20T03:53:28.850Z,38.20
2019-01-20T03:54:00.040Z,36.63
2019-01-20T03:54:31.242Z,39.45
2019-01-20T03:55:02.412Z,39.23
2019-01-20T03:55:33.585Z,40.92
2019-01-20T03:56:04.754Z,39.50
2019-01-20T03:56:35.932Z,41.18
2019-01-20T03:57:07.125Z,39.53
2019-01-20T03:57:38.287Z,38.83
2019-01-20T03:58:09.453Z,41.08
2019-01-20T03:58:40.625Z,39.88
2019-01-20T03:59:11.795Z,41.08
2019-01-20T03:59:42.996Z,41.15
2019-01-20T04:00:14.163Z,42.05
2019-01-20T04:00:45.327Z,40.30
2019-01-20T04:01:16.535Z,42.43
2019-01-20T04:01:47.694Z,42.33
2019-01-20T04:02:18.863Z,43.40
2019-01-20T04:02:50.022Z,43.15
2019-01-20T04:03:23.233Z,43.55
2019-01-20T04:03:54.405Z,44.18
2019-01-20T04:04:25.565Z,43.25
2019-01-20T04:04:56.730Z,44.30
2019-01-20T04:05:27.893Z,44.20
2019-01-20T04:05:59.123Z,43.28
2019-01-20T04:06:30.288Z,44.08
2019-01-20T04:07:01.449Z,41.68
2019-01-20T04:07:32.622Z,40.85
2019-01-20T04:08:03.808Z,44.83
2019-01-20T04:08:34.964Z,42.65
2019-01-20T04:09:06.148Z,41.00
2019-01-20T04:09:37.334Z,40.67
2019-01-20T04:10:08.495Z,41.85
2019-01-20T04:10:39.726Z,39.92
2019-01-20T04:11:10.887Z,39.90
2019-01-20T04:11:42.098Z,36.03
2019-01-20T04:12:20.426Z,38.80
2019-01-20T04:12:46.191Z,39.20
2019-01-20T04:13:17.359Z,39.53
2019-01-20T04:13:48.533Z,37.28
2019-01-20T04:14:19.705Z,36.15
2019-01-20T04:14:50.872Z,35.68
2019-01-20T04:15:22.056Z,37.93
2019-01-20T04:15:53.288Z,39.30
2019-01-20T04:16:24.454Z,40.50
2019-01-20T04:16:55.675Z,41.08
2019-01-20T04:17:26.865Z,40.58
2019-01-20T04:17:58.032Z,40.12
2019-01-20T04:18:29.197Z,41.98
2019-01-20T04:19:00.372Z,39.38
2019-01-20T04:19:31.549Z,39.33
2019-01-20T04:20:02.721Z,39.13
2019-01-20T04:20:33.901Z,40.90
2019-01-20T04:21:05.113Z,41.55
2019-01-20T04:21:36.295Z,43.78
2019-01-20T04:22:07.475Z,44.15
2019-01-20T04:22:38.634Z,44.40
2019-01-20T04:23:09.881Z,41.23
2019-01-20T04:23:41.073Z,42.08
2019-01-20T04:24:12.235Z,38.05
2019-01-20T04:24:43.399Z,41.68
2019-01-20T04:25:14.577Z,42.05
2019-01-20T04:25:45.749Z,43.38
2019-01-20T04:26:16.973Z,42.00
2019-01-20T04:26:48.132Z,42.20
2019-01-20T04:27:19.316Z,42.65
2019-01-20T04:27:50.484Z,40.83
2019-01-20T04:28:21.642Z,41.10
2019-01-20T04:28:52.805Z,39.88
2019-01-20T04:29:23.979Z,40.28
2019-01-20T04:29:55.137Z,40.80
2019-01-20T04:30:26.289Z,40.08
2019-01-20T04:30:57.449Z,43.15
2019-01-20T04:31:28.659Z,39.18
2019-01-20T04:31:59.835Z,40.50
2019-01-20T04:32:30.999Z,40.35
2019-01-20T04:33:02.169Z,40.65
2019-01-20T04:33:33.331Z,40.28
2019-01-20T04:34:04.497Z,42.13
2019-01-20T04:34:35.671Z,42.08
2019-01-20T04:35:06.826Z,40.75
2019-01-20T04:35:37.991Z,42.25
2019-01-20T04:36:09.216Z,40.30
2019-01-20T04:36:40.388Z,43.48
2019-01-20T04:37:11.567Z,40.85
2019-01-20T04:37:42.746Z,42.78
2019-01-20T04:38:13.900Z,41.63
2019-01-20T04:38:45.058Z,42.35
2019-01-20T04:39:16.229Z,42.75
2019-01-20T04:39:47.390Z,43.92
2019-01-20T04:40:18.555Z,46.53
2019-01-20T04:40:49.713Z,46.42
2019-01-20T04:41:20.915Z,43.10
2019-01-20T04:41:52.074Z,44.90
2019-01-20T04:42:28.972Z,44.10
2019-01-20T04:42:56.164Z,48.60
2019-01-20T04:43:27.330Z,42.70
2019-01-20T04:43:58.500Z,42.53
2019-01-20T04:44:29.676Z,42.48
2019-01-20T04:45:00.831Z,42.85
2019-01-20T04:45:31.996Z,44.08
2019-01-20T04:46:03.168Z,43.90
2019-01-20T04:46:34.339Z,43.40
2019-01-20T04:47:05.504Z,44.00
2019-01-20T04:47:36.722Z,44.98
2019-01-20T04:48:07.876Z,41.08
2019-01-20T04:48:39.037Z,37.83
2019-01-20T04:49:10.217Z,40.15
2019-01-20T04:49:41.386Z,39.42
2019-01-20T04:50:12.557Z,38.85
2019-01-20T04:50:43.727Z,40.40
2019-01-20T04:51:15.779Z,39.15
2019-01-20T04:51:46.950Z,37.70
2019-01-20T04:52:18.110Z,38.85
2019-01-20T04:52:49.330Z,41.77
2019-01-20T04:53:20.491Z,40.73
2019-01-20T04:53:51.647Z,41.15
2019-01-20T04:54:22.813Z,42.35
2019-01-20T04:54:53.971Z,47.15
2019-01-20T04:55:25.137Z,42.95
2019-01-20T04:55:58.571Z,42.38
2019-01-20T04:56:29.732Z,40.15
2019-01-20T04:57:00.894Z,42.30
2019-01-20T04:57:32.103Z,42.67
2019-01-20T04:58:03.278Z,42.67
2019-01-20T04:58:34.451Z,42.73
2019-01-20T04:59:05.616Z,40.85
2019-01-20T04:59:36.797Z,37.67
2019-01-20T05:00:07.948Z,38.83
2019-01-20T05:00:39.134Z,40.25
2019-01-20T05:01:10.322Z,40.45
2019-01-20T05:01:41.490Z,39.73
2019-01-20T05:02:12.700Z,40.28
2019-01-20T05:02:43.868Z,39.70
2019-01-20T05:03:15.081Z,38.63
2019-01-20T05:03:46.265Z,40.80
2019-01-20T05:04:17.475Z,40.80
2019-01-20T05:04:48.653Z,41.90
2019-01-20T05:05:19.821Z,42.38
2019-01-20T05:05:51.004Z,43.30
2019-01-20T05:06:22.161Z,40.33
2019-01-20T05:06:55.461Z,40.75
2019-01-20T05:07:26.639Z,41.00
2019-01-20T05:07:57.795Z,46.25
2019-01-20T05:08:28.960Z,44.75
2019-01-20T05:09:00.165Z,53.78
2019-01-20T05:09:31.334Z,42.70
2019-01-20T05:10:02.490Z,43.10
2019-01-20T05:10:33.713Z,42.35
2019-01-20T05:11:04.883Z,49.25
2019-01-20T05:11:36.073Z,43.92
2019-01-20T05:12:07.241Z,47.73
2019-01-20T05:12:38.409Z,41.70
2019-01-20T05:13:09.583Z,42.58
2019-01-20T05:13:40.753Z,43.08
2019-01-20T05:14:11.913Z,45.12
2019-01-20T05:14:43.101Z,46.45
2019-01-20T05:15:14.249Z,46.70
2019-01-20T05:15:45.469Z,48.02
2019-01-20T05:16:16.636Z,48.42
2019-01-20T05:16:47.803Z,49.40
2019-01-20T05:17:18.966Z,49.23
2019-01-20T05:17:50.140Z,46.77
2019-01-20T05:18:21.310Z,47.43
2019-01-20T05:18:52.476Z,48.52
2019-01-20T05:19:23.639Z,52.20
2019-01-20T05:19:54.817Z,49.05
2019-01-20T05:20:25.979Z,49.45
2019-01-20T05:20:57.169Z,44.65
2019-01-20T05:21:28.342Z,46.68
2019-01-20T05:21:59.513Z,45.60
2019-01-20T05:22:30.677Z,51.92
2019-01-20T05:23:01.841Z,46.42
2019-01-20T05:23:33.008Z,45.55
2019-01-20T05:24:04.171Z,49.20
2019-01-20T05:24:35.344Z,44.08
2019-01-20T05:25:06.499Z,45.78
2019-01-20T05:25:37.710Z,47.70
2019-01-20T05:26:08.889Z,48.63
2019-01-20T05:26:40.063Z,43.83
2019-01-20T05:27:11.239Z,44.45
2019-01-20T05:27:42.410Z,41.75
2019-01-20T05:28:13.622Z,37.83
2019-01-20T05:28:44.791Z,38.28
2019-01-20T05:29:15.966Z,38.88
2019-01-20T05:29:47.130Z,35.13
2019-01-20T05:30:18.296Z,35.83
2019-01-20T05:30:49.442Z,36.65
2019-01-20T05:31:20.597Z,35.70
2019-01-20T05:31:51.808Z,34.08
2019-01-20T05:32:22.965Z,31.30
2019-01-20T05:32:54.130Z,33.10
2019-01-20T05:33:25.286Z,31.25
2019-01-20T05:33:56.440Z,33.98
2019-01-20T05:34:27.607Z,35.28
2019-01-20T05:34:58.773Z,35.05
2019-01-20T05:35:29.938Z,36.85
2019-01-20T05:36:01.149Z,36.42
2019-01-20T05:36:32.338Z,37.23
2019-01-20T05:37:03.490Z,38.15
2019-01-20T05:37:34.703Z,36.13
2019-01-20T05:38:05.868Z,36.42
2019-01-20T05:38:37.026Z,38.58
2019-01-20T05:39:08.207Z,36.95
2019-01-20T05:39:39.428Z,38.90
2019-01-20T05:40:10.898Z,39.08
2019-01-20T05:40:42.122Z,38.05
2019-01-20T05:41:13.297Z,37.42
2019-01-20T05:41:44.453Z,39.15
2019-01-20T05:42:15.618Z,37.05
2019-01-20T05:42:46.944Z,35.48
2019-01-20T05:43:18.153Z,37.85
2019-01-20T05:43:49.311Z,38.45
2019-01-20T05:44:20.531Z,38.60
2019-01-20T05:44:51.715Z,36.55
2019-01-20T05:45:22.866Z,38.58
2019-01-20T05:45:54.029Z,39.13
2019-01-20T05:46:25.183Z,38.48
2019-01-20T05:46:56.358Z,39.10
2019-01-20T05:47:27.535Z,37.95
2019-01-20T05:47:58.689Z,40.05
2019-01-20T05:48:29.905Z,39.35
2019-01-20T05:49:01.068Z,34.80
2019-01-20T05:49:32.223Z,36.00
2019-01-20T05:50:03.394Z,34.25
2019-01-20T05:50:34.550Z,35.28
2019-01-20T05:51:05.707Z,36.48
2019-01-20T05:51:36.870Z,39.25
2019-01-20T05:52:08.039Z,37.88
2019-01-20T05:52:39.290Z,35.45
2019-01-20T05:53:10.403Z,36.68
2019-01-20T05:53:41.610Z,38.63
2019-01-20T05:54:12.777Z,38.45
2019-01-20T05:54:43.955Z,37.25
2019-01-20T05:55:15.163Z,38.75
2019-01-20T05:55:46.324Z,37.10
2019-01-20T05:56:17.505Z,38.73
2019-01-20T05:56:48.650Z,37.63
2019-01-20T05:57:19.821Z,38.40
2019-01-20T05:57:50.989Z,39.78
2019-01-20T05:58:22.150Z,39.48
2019-01-20T05:58:53.304Z,35.70
2019-01-20T05:59:24.526Z,36.45
2019-01-20T05:59:55.695Z,36.15
2019-01-20T06:00:26.865Z,36.17
2019-01-20T06:01:00.338Z,33.70
2019-01-20T06:01:31.504Z,33.08
2019-01-20T06:02:02.673Z,31.20
2019-01-20T06:02:33.846Z,33.78
2019-01-20T06:03:05.012Z,33.88
2019-01-20T06:03:36.193Z,33.67
2019-01-20T06:04:07.351Z,35.23
2019-01-20T06:04:38.510Z,35.28
2019-01-20T06:05:09.678Z,35.95
2019-01-20T06:05:40.859Z,35.05
2019-01-20T06:06:12.095Z,35.48
2019-01-20T06:06:43.259Z,37.67
2019-01-20T06:07:14.436Z,39.23
2019-01-20T06:07:45.598Z,38.48
2019-01-20T06:08:16.768Z,36.58
2019-01-20T06:08:47.927Z,38.88
2019-01-20T06:09:19.088Z,44.38
2019-01-20T06:09:50.265Z,47.03
2019-01-20T06:10:21.430Z,49.50
2019-01-20T06:10:52.996Z,47.70
2019-01-20T06:11:24.216Z,49.48
2019-01-20T06:11:55.395Z,54.10
2019-01-20T06:12:26.558Z,51.53
2019-01-20T06:12:57.731Z,65.90
2019-01-20T06:13:28.948Z,58.20
2019-01-20T06:14:00.114Z,58.23
2019-01-20T06:14:31.278Z,62.83
2019-01-20T06:15:02.491Z,46.42
2019-01-20T06:15:33.673Z,41.15
2019-01-20T06:16:04.837Z,54.63
2019-01-20T06:16:36.049Z,49.33
2019-01-20T06:17:07.234Z,57.83
2019-01-20T06:17:38.411Z,58.87
2019-01-20T06:18:09.575Z,59.58
2019-01-20T06:18:40.791Z,61.55
2019-01-20T06:19:11.971Z,51.25
2019-01-20T06:19:43.138Z,40.35
2019-01-20T06:20:14.316Z,37.53
2019-01-20T06:20:45.481Z,40.23
2019-01-20T06:21:16.666Z,40.40
2019-01-20T06:21:47.854Z,40.43
2019-01-20T06:22:19.043Z,41.60
2019-01-20T06:22:50.229Z,51.00
2019-01-20T06:23:21.451Z,57.73
2019-01-20T06:23:52.622Z,55.63
2019-01-20T06:24:23.785Z,55.03
2019-01-20T06:24:54.944Z,50.33
2019-01-20T06:25:26.108Z,52.90
2019-01-20T06:25:57.294Z,52.88
2019-01-20T06:26:28.526Z,43.75
2019-01-20T06:26:59.686Z,41.80
2019-01-20T06:27:30.858Z,42.90
2019-01-20T06:28:02.027Z,44.30
2019-01-20T06:28:33.218Z,51.90
2019-01-20T06:29:04.360Z,54.38
2019-01-20T06:29:35.528Z,51.85
2019-01-20T06:30:06.703Z,47.58
2019-01-20T06:30:37.882Z,48.63
2019-01-20T06:31:09.080Z,46.40
2019-01-20T06:31:40.269Z,46.05
2019-01-20T06:32:11.452Z,46.77
2019-01-20T06:32:42.606Z,45.75
2019-01-20T06:33:13.794Z,51.05
2019-01-20T06:33:44.980Z,50.10
2019-01-20T06:34:16.187Z,51.85
2019-01-20T06:34:48.874Z,46.88
2019-01-20T06:35:20.202Z,48.20
2019-01-20T06:35:51.360Z,44.05
2019-01-20T06:36:22.527Z,43.25
2019-01-20T06:36:53.698Z,42.53
2019-01-20T06:37:24.852Z,44.70
2019-01-20T06:37:56.034Z,43.40
2019-01-20T06:38:27.248Z,42.45
2019-01-20T06:38:58.431Z,47.73
2019-01-20T06:39:29.587Z,46.18
2019-01-20T06:40:00.781Z,44.23
2019-01-20T06:40:31.982Z,45.70
2019-01-20T06:41:03.153Z,49.35
2019-01-20T06:41:34.335Z,49.58
2019-01-20T06:42:05.506Z,54.75